Stations météo

Publicité
Dourbes, Belgique (6455): Température de l'air & dewpoint: 19.06.2018 02:00:00 - 25.06.2018 02:00:00 (CEST)Dourbes, Belgique (6455): Vitesse du vent & gusts: 19.06.2018 02:00:00 - 25.06.2018 02:00:00 (CEST)Dourbes, Belgique (6455): Direction du vent: 19.06.2018 02:00:00 - 25.06.2018 02:00:00 (CEST)Dourbes, Belgique (6455): reduced air pressure: 19.06.2018 02:00:00 - 25.06.2018 02:00:00 (CEST)Dourbes, Belgique (6455): Ensoleillement: 19.06.2018 02:00:00 - 25.06.2018 02:00:00 (CEST)Dourbes, Belgique (6455): Quantités de précipitations: 19.06.2018 02:00:00 - 25.06.2018 02:00:00 (CEST)
Date & Time tt [°C] td [°C] ff [km/h] ff [knt] fx [km/h] fx [knt] dd ppp [hPa] sd [min] rr [mm]
25.06.2018 02:00:00 12,6 9,9 10 5 19 10 N 1023,3 0 0,0
25.06.2018 01:00:00 13,5 10,7 10 5 19 10 N 1023,2 0 0,0
25.06.2018 00:00:00 14,0 10,4 5 3 16 9 N 1023,0 0 0,0
24.06.2018 23:00:00 15,3 10,5 5 3 18 10 N 1022,8 0 0,0
24.06.2018 22:00:00 16,5 10,7 6 4 19 10 N 1022,2 0 0,0
24.06.2018 21:00:00 17,5 10,3 8 4 18 10 NNE 1021,9 0 0,0
24.06.2018 20:00:00 17,8 10,5 7 4 18 10 N 1022,0 8 0,0
24.06.2018 19:00:00 18,3 10,7 9 5 24 13 N 1022,0 43 0,0
24.06.2018 18:00:00 18,9 10,7 9 5 28 15 NNE 1022,1 60 0,0
24.06.2018 17:00:00 18,5 10,5 10 6 24 13 N 1022,4 60 0,0
24.06.2018 16:00:00 17,9 10,1 9 5 23 12 NNE 1022,5 59 0,0
24.06.2018 15:00:00 17,5 10,5 11 6 23 12 N 1022,8 58 0,0
24.06.2018 14:00:00 16,7 9,5 11 6 25 13 N 1023,2 41 0,0
24.06.2018 13:00:00 16,5 10,0 10 6 21 11 N 1023,4 60 0,0
24.06.2018 12:00:00 15,1 9,4 10 6 20 11 N 1023,6 60 0,0
24.06.2018 11:00:00 14,4 9,5 8 5 16 9 N 1023,5 60 0,0
24.06.2018 10:00:00 13,1 10,1 8 4 16 8 N 1023,6 26 0,0
24.06.2018 09:00:00 12,2 10,4 5 3 11 6 N 1023,5 59 0,0
24.06.2018 08:00:00 10,3 10,3 0 0 4 2 N 1023,8 13 0,0
24.06.2018 07:00:00 8,8 8,8 0 0 5 3 N 1023,6 8 0,0
24.06.2018 06:00:00 8,0 8,0 4 2 5 3 W 1023,6 0 0,0
24.06.2018 05:00:00 8,1 7,9 0 0 4 2 N 1023,6 0 0,0
24.06.2018 04:00:00 8,8 8,6 4 2 5 3 S 1024,0 0 0,0
24.06.2018 03:00:00 9,5 9,1 4 2 6 3 WSW 1024,3 0 0,0
24.06.2018 02:00:00 10,2 9,7 0 0 5 3 N 1024,5 0 0,0
24.06.2018 01:00:00 11,3 10,5 4 2 4 2 SW 1024,7 0 0,0
24.06.2018 00:00:00 12,4 10,9 4 2 4 2 SW 1024,8 0 0,0
23.06.2018 23:00:00 13,9 11,0 0 0 5 3 N 1024,6 0 0,0
23.06.2018 22:00:00 15,4 10,8 0 0 6 4 N 1024,4 0 0,0
23.06.2018 21:00:00 16,6 10,7 4 2 8 4 E 1024,4 9 0,0
23.06.2018 20:00:00 17,3 10,3 4 2 10 5 E 1024,5 1 0,0
23.06.2018 19:00:00 18,3 10,2 4 2 11 6 N 1024,8 9 0,0
23.06.2018 18:00:00 18,4 9,9 6 4 16 8 N 1025,2 40 0,0
23.06.2018 17:00:00 17,9 9,8 9 5 18 10 N 1025,7 22 0,0
23.06.2018 16:00:00 17,8 10,1 8 4 19 10 N 1026,2 18 0,0
23.06.2018 15:00:00 17,4 9,9 6 4 18 10 N 1026,8 21 0,0
23.06.2018 14:00:00 16,9 9,9 7 4 16 9 NNW 1027,4 22 0,0
23.06.2018 13:00:00 16,4 10,0 8 4 14 8 NW 1027,5 54 0,0
23.06.2018 12:00:00 15,0 9,3 7 4 19 10 N 1027,8 57 0,0
23.06.2018 11:00:00 14,2 8,1 8 5 21 11 N 1028,1 60 0,0
23.06.2018 10:00:00 12,5 8,1 8 4 16 8 N 1028,3 59 0,0
23.06.2018 09:00:00 10,9 8,4 6 3 14 8 N 1028,8 60 0,0
23.06.2018 08:00:00 7,6 7,3 4 2 5 3 S 1029,2 60 0,0
23.06.2018 07:00:00 6,4 6,3 0 0 6 3 N 1029,0 33 0,0
23.06.2018 06:00:00 5,5 5,2 4 2 4 2 S 1028,8 0 0,0
23.06.2018 05:00:00 6,2 5,8 0 0 6 3 N 1028,5 0 0,0
23.06.2018 04:00:00 7,0 6,5 0 0 11 6 N 1028,6 0 0,0
23.06.2018 03:00:00 8,0 6,8 4 2 10 5 NNW 1028,6 0 0,0
23.06.2018 02:00:00 9,4 7,8 7 4 14 7 N 1028,7 0 0,0
23.06.2018 01:00:00 9,4 7,3 6 3 12 7 N 1028,9 0 0,0
23.06.2018 00:00:00 10,3 7,2 6 3 15 8 N 1028,7 0 0,0
22.06.2018 23:00:00 11,4 7,2 8 4 14 7 N 1028,6 0 0,0
22.06.2018 22:00:00 12,8 6,9 6 3 17 9 N 1028,0 0 0,0
22.06.2018 21:00:00 14,1 6,5 9 5 25 13 N 1027,6 28 0,0
22.06.2018 20:00:00 14,7 5,9 14 8 31 17 N 1027,6 45 0,0
22.06.2018 19:00:00 15,6 7,0 14 8 26 14 N 1027,6 37 0,0
22.06.2018 18:00:00 15,6 6,5 16 9 33 18 N 1027,3 32 0,0
22.06.2018 17:00:00 16,8 6,6 17 9 33 18 N 1026,9 47 0,0
22.06.2018 16:00:00 17,3 5,9 15 8 38 20 N 1026,6 60 0,0
22.06.2018 15:00:00 17,7 6,7 13 7 37 20 NNW 1026,5 55 0,0
22.06.2018 14:00:00 17,9 7,4 14 8 38 20 NW 1026,7 47 0,0
22.06.2018 13:00:00 16,4 6,5 15 8 32 17 N 1026,9 46 0,0
22.06.2018 12:00:00 15,7 7,4 13 7 33 18 NNW 1027,0 54 0,0
22.06.2018 11:00:00 14,4 7,9 13 7 30 16 NNW 1027,4 41 0,0
22.06.2018 10:00:00 13,8 8,8 11 6 27 15 NW 1027,3 57 0,0
22.06.2018 09:00:00 12,1 8,2 8 5 16 9 WNW 1027,4 60 0,0
22.06.2018 08:00:00 8,5 7,6 4 2 8 5 SW 1027,7 60 0,0
22.06.2018 07:00:00 4,9 4,8 6 3 9 5 SW 1028,0 34 0,0
22.06.2018 06:00:00 3,7 3,5 5 3 6 3 SW 1027,9 0 0,0
22.06.2018 05:00:00 4,0 3,6 4 2 5 3 SSW 1027,6 0 0,0
22.06.2018 04:00:00 4,7 4,0 5 3 5 3 SSW 1027,5 0 0,0
22.06.2018 03:00:00 5,8 4,6 4 2 7 4 SSW 1027,5 0 0,0
22.06.2018 02:00:00 6,6 4,6 4 2 12 7 WNW 1027,7 0 0,0
22.06.2018 01:00:00 8,2 5,2 8 4 14 8 N 1027,4 0 0,0
22.06.2018 00:00:00 8,7 5,1 4 2 16 8 NNW 1027,2 0 0,0
21.06.2018 23:00:00 10,1 5,2 8 4 26 14 NNW 1026,7 0 0,0
21.06.2018 22:00:00 11,2 6,3 10 6 23 13 N 1026,0 0 0,0
21.06.2018 21:00:00 12,8 6,7 11 6 29 16 N 1025,3 11 0,0
21.06.2018 20:00:00 13,1 5,2 14 8 28 15 N 1024,9 30 0,0
21.06.2018 19:00:00 14,6 5,1 14 7 34 18 NNW 1024,4 41 0,0
21.06.2018 18:00:00 14,5 5,3 15 8 40 22 N 1023,9 38 0,0
21.06.2018 17:00:00 15,7 5,9 14 7 30 16 NNW 1022,9 46 0,0
21.06.2018 16:00:00 16,3 6,1 16 9 32 17 N 1022,1 41 0,0
21.06.2018 15:00:00 17,0 7,0 11 6 36 19 NNW 1021,6 50 0,0
21.06.2018 14:00:00 17,2 8,9 14 8 30 16 NNW 1021,2 51 0,0
21.06.2018 13:00:00 16,0 9,4 14 8 31 17 NNW 1021,0 33 0,0
21.06.2018 12:00:00 15,4 10,4 13 7 32 17 NW 1020,8 38 0,0
21.06.2018 11:00:00 15,2 12,7 10 5 30 16 NW 1020,1 17 0,0
21.06.2018 10:00:00 14,8 13,9 11 6 27 14 NW 1019,4 0 0,0
21.06.2018 09:00:00 14,5 14,3 8 4 25 14 WNW 1018,7 0 0,1
21.06.2018 08:00:00 14,6 14,4 11 6 20 11 WNW 1018,2 0 0,0
21.06.2018 07:00:00 14,4 14,2 7 4 16 9 WSW 1017,7 0 0,0
21.06.2018 06:00:00 14,0 13,9 7 4 19 10 W 1017,5 0 0,0
21.06.2018 05:00:00 12,6 12,4 5 3 10 6 WSW 1017,5 0 0,0
21.06.2018 04:00:00 13,3 13,0 4 2 6 3 W 1017,8 0 0,0
21.06.2018 03:00:00 13,9 13,4 4 2 8 4 S 1018,4 0 0,0
21.06.2018 02:00:00 15,0 14,4 4 2 5 3 WSW 1018,6 0 0,0
21.06.2018 01:00:00 15,7 14,4 4 2 5 3 SSE 1018,4 0 0,0
21.06.2018 00:00:00 17,2 14,5 4 2 11 6 WSW 1018,8 0 0,0
20.06.2018 23:00:00 19,0 14,7 7 4 13 7 WNW 1018,8 0 0,0
20.06.2018 22:00:00 20,6 15,0 8 4 14 7 WNW 1018,4 0 0,0
20.06.2018 21:00:00 22,5 15,7 8 4 19 10 WNW 1018,0 29 0,0
20.06.2018 20:00:00 24,8 15,4 11 6 18 10 WNW 1018,0 60 0,0
20.06.2018 19:00:00 25,6 15,8 9 5 19 11 WNW 1018,1 60 0,0
20.06.2018 18:00:00 26,1 16,0 6 4 15 8 W 1018,4 60 0,0
20.06.2018 17:00:00 26,2 15,5 6 3 21 11 WNW 1018,8 60 0,0
20.06.2018 16:00:00 26,1 16,3 6 3 16 9 WNW 1019,1 60 0,0
20.06.2018 15:00:00 25,4 17,1 7 4 19 10 NW 1019,7 59 0,0
20.06.2018 14:00:00 25,2 16,9 7 4 17 9 WNW 1020,1 57 0,0
20.06.2018 13:00:00 24,4 17,4 7 4 19 11 W 1020,8 57 0,0
20.06.2018 12:00:00 23,3 17,2 7 4 16 9 SW 1021,2 60 0,0
20.06.2018 11:00:00 22,2 16,8 6 3 16 9 WSW 1021,5 60 0,0
20.06.2018 10:00:00 20,5 15,8 8 5 14 7 S 1021,9 60 0,0
20.06.2018 09:00:00 19,7 17,2 4 2 10 6 SSW 1021,9 59 0,0
20.06.2018 08:00:00 17,2 17,2 0 0 4 2 N 1022,2 16 0,0
20.06.2018 07:00:00 15,6 15,6 4 2 5 3 NNW 1022,5 2 0,0
20.06.2018 06:00:00 15,8 15,7 0 0 4 2 N 1022,6 0 0,0
20.06.2018 05:00:00 16,0 15,9 4 2 6 3 SW 1022,9 0 0,0
20.06.2018 04:00:00 16,2 15,9 0 0 4 2 N 1023,2 0 0,0
20.06.2018 03:00:00 16,5 16,1 0 0 3 1 N 1023,4 0 0,0
20.06.2018 02:00:00 16,9 16,2 0 0 4 2 N 1023,7 0 0,0
20.06.2018 01:00:00 17,2 16,4 0 0 3 2 N 1024,0 0 0,0
20.06.2018 00:00:00 17,5 16,5 4 2 4 2 E 1024,0 0 0,0
19.06.2018 23:00:00 17,8 16,5 4 2 5 3 ENE 1024,0 0 0,0
19.06.2018 22:00:00 18,1 16,5 4 2 5 3 S 1023,8 0 0,0
19.06.2018 21:00:00 18,4 16,4 4 2 8 4 SW 1023,8 0 0,0
19.06.2018 20:00:00 18,8 16,4 4 2 11 6 WSW 1023,9 0 0,0
19.06.2018 19:00:00 19,2 16,5 6 3 14 7 W 1024,0 0 0,0
19.06.2018 18:00:00 19,1 16,5 6 4 13 7 WSW 1024,2 0 0,0
19.06.2018 17:00:00 19,1 16,8 5 3 17 9 WSW 1024,5 0 0,0
19.06.2018 16:00:00 19,5 16,6 7 4 23 13 SW 1024,5 0 0,0
19.06.2018 15:00:00 19,5 16,7 7 4 19 10 WSW 1024,6 3 0,0
19.06.2018 14:00:00 18,9 16,9 7 4 21 11 W 1024,6 0 0,0
19.06.2018 13:00:00 18,2 16,0 7 4 19 10 WSW 1024,6 2 0,0
19.06.2018 12:00:00 17,5 15,4 8 4 21 11 W 1024,7 0 0,0
19.06.2018 11:00:00 17,5 15,8 9 5 22 12 SW 1024,6 11 0,0
19.06.2018 10:00:00 16,7 16,5 9 5 16 9 SW 1024,5 6 0,0
19.06.2018 09:00:00 15,4 15,4 8 5 14 8 SW 1024,6 0 0,1
19.06.2018 08:00:00 15,0 14,7 7 4 14 7 SSW 1024,3 0 0,0
19.06.2018 07:00:00 14,7 14,4 5 3 16 9 SW 1024,1 0 0,0
19.06.2018 06:00:00 14,5 14,2 7 4 14 8 W 1024,0 0 0,0
19.06.2018 05:00:00 13,9 13,6 6 3 16 9 WSW 1023,3 0 0,0
19.06.2018 04:00:00 13,7 13,3 9 5 17 9 SW 1023,3 0 0,0
19.06.2018 03:00:00 13,5 13,0 6 4 15 8 WSW 1023,3 0 0,0
19.06.2018 02:00:00 13,3 12,6 4 2 14 7 W 1023,3 0 0,0

tt = Température de l'air
td = dewpoint
ff = Vitesse du vent
fx = gusts
dd = Direction du vent
ppp = reduced air pressure
sd = Ensoleillement
rr = Quantités de précipitations

stations d'obs. à proximité